Forside
METAR-TAF:

METAR-TAF

Lufthavne :

Agra, Indien

Breddekreds: 27-09-27N, længdekreds: 077-57-39E, højde: 168 m

METAR: fraværende

Tid: 14:01 (08:31 UTC)

Vejrudsigter

Denne rapport blev lavet for 11 timer og 1 minutter siden, kl. 21:30 UTC
Foreløbig gælder fra 22 på 00 UTC til 22 på 12 UTC
Vind 10 kt fra øst
Sigt: 3000 m
Spredte skyer i en højde af 2000 ft
Brudte skyer i en højde af 9000 ft
dis
ændring
fra 22 på 05 UTC til 22 på 06 UTC
Sigt: 5000 m
tåge/dis
ændring
fra 22 på 07 UTC til 22 på 08 UTC
Sigt: 6000 m
Midlertidig
fra 22 på 08 UTC til 22 på 10 UTC
Vind 10 kt fra østsydøst med vindstød på up til 20 kt
Sigt: 3000 m
Spredte skyer i en højde af 2000 ft
Nogle få skyer i en højde af 2500 ft, Cumulonimbus.
Brudte skyer i en højde af 9000 ft
tordenbyger, regn

TAF: VIAG 212130Z 2200/2212 09010KT 3000 BR SCT020 BKN090 BECMG 2205/2206 5000 HZ BECMG 2207/2208 6000 TEMPO 2208/2210 11010G20KT 3000 TSRA SCT020 FEW025CB BKN090

Vejrobservationer og prognoser fra mere end 4000 lufthavne (METAR og TAF).

De gule og røde prikker repræsenterer de meteorologiske stationer.

Flyt musen over at se navnet på stationen.

Så klik over at se vejr observationer og prognoser.

At skifte det kort: Klik på de grønne knapper med et sort kors for at zoome ind; på den grønne knap med en bindestreg for at zoome ud; eller på de grønne pile for tilstødende kort.


METAR-TAF: